sensor_id;sensor_type;location;lat;lon;timestamp;pressure;altitude;pressure_sealevel;temperature;humidity
11395;BME280;5753;54.402;10.220;2023-03-20T00:01:29;101629.88;;;13.75;86.22
11395;BME280;5753;54.402;10.220;2023-03-20T00:03:56;101634.94;;;14.25;81.52
11395;BME280;5753;54.402;10.220;2023-03-20T00:06:24;101620.06;;;14.80;77.06
11395;BME280;5753;54.402;10.220;2023-03-20T00:08:52;101628.84;;;15.84;69.59
11395;BME280;5753;54.402;10.220;2023-03-20T00:11:45;101627.59;;;15.42;70.99
11395;BME280;5753;54.402;10.220;2023-03-20T00:14:12;101636.78;;;14.35;73.20
11395;BME280;5753;54.402;10.220;2023-03-20T00:16:43;101639.19;;;14.88;74.41
11395;BME280;5753;54.402;10.220;2023-03-20T00:19:22;101646.09;;;14.20;79.51
11395;BME280;5753;54.402;10.220;2023-03-20T00:21:49;101650.22;;;13.52;81.24
11395;BME280;5753;54.402;10.220;2023-03-20T00:24:16;101638.38;;;12.75;86.34
11395;BME280;5753;54.402;10.220;2023-03-20T00:26:43;101635.91;;;15.07;72.99
11395;BME280;5753;54.402;10.220;2023-03-20T00:29:21;101628.84;;;14.91;72.10
11395;BME280;5753;54.402;10.220;2023-03-20T00:31:48;101640.16;;;14.98;69.96
11395;BME280;5753;54.402;10.220;2023-03-20T00:34:16;101634.63;;;13.49;78.66
11395;BME280;5753;54.402;10.220;2023-03-20T00:36:44;101634.25;;;12.41;85.40
11395;BME280;5753;54.402;10.220;2023-03-20T00:39:10;101633.78;;;13.04;84.43
11395;BME280;5753;54.402;10.220;2023-03-20T00:41:41;101631.28;;;12.24;87.88
11395;BME280;5753;54.402;10.220;2023-03-20T00:44:24;101637.25;;;12.60;86.99
11395;BME280;5753;54.402;10.220;2023-03-20T00:46:54;101640.31;;;12.04;87.84
11395;BME280;5753;54.402;10.220;2023-03-20T00:49:25;101647.44;;;11.78;90.27
11395;BME280;5753;54.402;10.220;2023-03-20T00:51:53;101652.69;;;11.13;96.43
11395;BME280;5753;54.402;10.220;2023-03-20T00:54:19;101643.25;;;13.03;83.17
11395;BME280;5753;54.402;10.220;2023-03-20T00:57:36;101651.63;;;13.34;79.24
11395;BME280;5753;54.402;10.220;2023-03-20T00:59:39;101638.63;;;12.43;85.13
11395;BME280;5753;54.402;10.220;2023-03-20T01:02:06;101627.56;;;14.57;73.04
11395;BME280;5753;54.402;10.220;2023-03-20T01:04:38;101634.44;;;13.39;75.34
11395;BME280;5753;54.402;10.220;2023-03-20T01:07:06;101632.41;;;14.30;72.63
11395;BME280;5753;54.402;10.220;2023-03-20T01:09:32;101634.41;;;13.89;74.04
11395;BME280;5753;54.402;10.220;2023-03-20T01:12:02;101634.69;;;14.70;70.44
11395;BME280;5753;54.402;10.220;2023-03-20T01:14:29;101644.50;;;13.72;74.36
11395;BME280;5753;54.402;10.220;2023-03-20T01:16:55;101648.22;;;13.89;74.21
11395;BME280;5753;54.402;10.220;2023-03-20T01:19:22;101650.59;;;13.74;71.40
11395;BME280;5753;54.402;10.220;2023-03-20T01:21:48;101646.41;;;13.83;72.01
11395;BME280;5753;54.402;10.220;2023-03-20T01:24:14;101632.47;;;15.08;67.81
11395;BME280;5753;54.402;10.220;2023-03-20T01:26:42;101637.03;;;14.54;69.25
11395;BME280;5753;54.402;10.220;2023-03-20T01:31:46;101638.59;;;14.41;68.86
11395;BME280;5753;54.402;10.220;2023-03-20T01:34:13;101640.50;;;13.39;74.67
11395;BME280;5753;54.402;10.220;2023-03-20T01:36:49;101648.38;;;13.00;78.21
11395;BME280;5753;54.402;10.220;2023-03-20T01:39:16;101651.53;;;12.43;86.74
11395;BME280;5753;54.402;10.220;2023-03-20T01:41:44;101653.44;;;12.52;84.19
11395;BME280;5753;54.402;10.220;2023-03-20T01:46:44;101657.19;;;14.11;74.22
11395;BME280;5753;54.402;10.220;2023-03-20T01:51:46;101655.13;;;13.89;73.78
11395;BME280;5753;54.402;10.220;2023-03-20T01:54:26;101659.31;;;12.85;81.07
11395;BME280;5753;54.402;10.220;2023-03-20T01:56:56;101650.53;;;11.30;91.58
11395;BME280;5753;54.402;10.220;2023-03-20T02:01:56;101650.25;;;12.65;83.66
11395;BME280;5753;54.402;10.220;2023-03-20T02:04:29;101638.31;;;13.65;75.94
11395;BME280;5753;54.402;10.220;2023-03-20T02:06:57;101641.53;;;11.82;85.08
11395;BME280;5753;54.402;10.220;2023-03-20T02:09:23;101633.16;;;10.90;92.67
11395;BME280;5753;54.402;10.220;2023-03-20T02:11:49;101635.16;;;13.29;79.69
11395;BME280;5753;54.402;10.220;2023-03-20T02:14:16;101629.97;;;12.41;84.29
11395;BME280;5753;54.402;10.220;2023-03-20T02:16:43;101635.19;;;12.44;85.80
11395;BME280;5753;54.402;10.220;2023-03-20T02:19:37;101632.41;;;12.35;83.38
11395;BME280;5753;54.402;10.220;2023-03-20T02:39:01;101620.56;;;12.06;80.77
11395;BME280;5753;54.402;10.220;2023-03-20T02:44:07;101615.50;;;13.96;69.66
11395;BME280;5753;54.402;10.220;2023-03-20T02:47:01;101620.69;;;13.97;69.81
11395;BME280;5753;54.402;10.220;2023-03-20T03:00:12;101622.59;;;14.09;71.03
11395;BME280;5753;54.402;10.220;2023-03-20T03:02:47;101615.91;;;14.25;69.69
11395;BME280;5753;54.402;10.220;2023-03-20T03:05:23;101610.75;;;14.26;69.42
11395;BME280;5753;54.402;10.220;2023-03-20T03:07:52;101602.97;;;14.28;68.75
11395;BME280;5753;54.402;10.220;2023-03-20T03:10:29;101601.06;;;14.14;67.55
11395;BME280;5753;54.402;10.220;2023-03-20T03:12:59;101594.59;;;14.47;65.89
11395;BME280;5753;54.402;10.220;2023-03-20T03:15:29;101590.63;;;14.10;67.03
11395;BME280;5753;54.402;10.220;2023-03-20T03:17:58;101588.06;;;14.13;67.61
11395;BME280;5753;54.402;10.220;2023-03-20T03:20:29;101579.88;;;14.46;68.22
11395;BME280;5753;54.402;10.220;2023-03-20T03:22:57;101576.81;;;14.12;69.11
11395;BME280;5753;54.402;10.220;2023-03-20T03:25:26;101576.28;;;14.36;67.82
11395;BME280;5753;54.402;10.220;2023-03-20T03:28:05;101582.75;;;14.04;70.39
11395;BME280;5753;54.402;10.220;2023-03-20T03:30:36;101585.44;;;14.78;67.65
11395;BME280;5753;54.402;10.220;2023-03-20T03:33:31;101578.59;;;14.86;66.59
11395;BME280;5753;54.402;10.220;2023-03-20T03:42:15;101574.69;;;15.31;64.35
11395;BME280;5753;54.402;10.220;2023-03-20T03:45:10;101563.06;;;14.89;66.63
11395;BME280;5753;54.402;10.220;2023-03-20T03:48:16;101573.72;;;14.38;68.83
11395;BME280;5753;54.402;10.220;2023-03-20T03:50:42;101563.78;;;14.05;69.50
11395;BME280;5753;54.402;10.220;2023-03-20T03:53:19;101560.31;;;14.74;66.74
11395;BME280;5753;54.402;10.220;2023-03-20T03:55:51;101555.22;;;14.83;66.09
11395;BME280;5753;54.402;10.220;2023-03-20T03:58:42;101558.88;;;15.05;66.63
11395;BME280;5753;54.402;10.220;2023-03-20T04:01:11;101557.38;;;14.43;68.02
11395;BME280;5753;54.402;10.220;2023-03-20T04:03:41;101563.78;;;14.74;66.97
11395;BME280;5753;54.402;10.220;2023-03-20T04:06:10;101567.63;;;14.34;68.91
11395;BME280;5753;54.402;10.220;2023-03-20T04:08:39;101570.25;;;14.39;69.05
11395;BME280;5753;54.402;10.220;2023-03-20T04:11:16;101566.03;;;13.79;70.74
11395;BME280;5753;54.402;10.220;2023-03-20T04:13:47;101554.63;;;14.31;67.85
11395;BME280;5753;54.402;10.220;2023-03-20T04:16:15;101562.44;;;14.34;70.03
11395;BME280;5753;54.402;10.220;2023-03-20T04:18:42;101550.34;;;15.15;65.90
11395;BME280;5753;54.402;10.220;2023-03-20T04:21:10;101544.28;;;15.18;65.40
11395;BME280;5753;54.402;10.220;2023-03-20T04:23:36;101552.41;;;14.65;67.20
11395;BME280;5753;54.402;10.220;2023-03-20T04:26:03;101552.56;;;14.06;69.49
11395;BME280;5753;54.402;10.220;2023-03-20T04:28:29;101552.00;;;14.28;69.65
11395;BME280;5753;54.402;10.220;2023-03-20T04:30:57;101552.41;;;14.65;68.46
11395;BME280;5753;54.402;10.220;2023-03-20T04:33:25;101553.31;;;13.99;71.99
11395;BME280;5753;54.402;10.220;2023-03-20T04:35:51;101545.19;;;14.38;68.63
11395;BME280;5753;54.402;10.220;2023-03-20T04:38:18;101554.84;;;14.49;67.14
11395;BME280;5753;54.402;10.220;2023-03-20T04:40:45;101560.63;;;14.27;69.34
11395;BME280;5753;54.402;10.220;2023-03-20T04:43:12;101554.69;;;14.39;68.64
11395;BME280;5753;54.402;10.220;2023-03-20T04:45:39;101558.38;;;13.90;69.53
11395;BME280;5753;54.402;10.220;2023-03-20T04:48:06;101555.09;;;14.01;70.40
11395;BME280;5753;54.402;10.220;2023-03-20T04:50:32;101553.28;;;13.96;70.22
11395;BME280;5753;54.402;10.220;2023-03-20T04:52:58;101547.25;;;13.97;71.00
11395;BME280;5753;54.402;10.220;2023-03-20T04:55:25;101554.88;;;13.84;71.04
11395;BME280;5753;54.402;10.220;2023-03-20T04:57:51;101553.91;;;12.77;74.54
11395;BME280;5753;54.402;10.220;2023-03-20T05:00:17;101544.59;;;13.91;73.40
11395;BME280;5753;54.402;10.220;2023-03-20T05:02:44;101548.19;;;14.02;72.39
11395;BME280;5753;54.402;10.220;2023-03-20T05:05:10;101555.38;;;13.61;71.56
11395;BME280;5753;54.402;10.220;2023-03-20T05:07:36;101554.38;;;13.51;72.57
11395;BME280;5753;54.402;10.220;2023-03-20T05:10:04;101561.53;;;13.70;73.79
11395;BME280;5753;54.402;10.220;2023-03-20T05:12:30;101568.72;;;13.86;73.56
11395;BME280;5753;54.402;10.220;2023-03-20T05:14:56;101556.28;;;13.64;72.62
11395;BME280;5753;54.402;10.220;2023-03-20T05:17:23;101551.09;;;13.64;74.27
11395;BME280;5753;54.402;10.220;2023-03-20T05:19:50;101553.25;;;13.93;73.22
11395;BME280;5753;54.402;10.220;2023-03-20T05:22:17;101559.97;;;13.78;74.27
11395;BME280;5753;54.402;10.220;2023-03-20T05:24:43;101559.72;;;12.64;80.29
11395;BME280;5753;54.402;10.220;2023-03-20T05:27:09;101559.75;;;13.66;73.51
11395;BME280;5753;54.402;10.220;2023-03-20T05:29:36;101567.44;;;13.60;76.84
11395;BME280;5753;54.402;10.220;2023-03-20T05:32:02;101569.66;;;13.34;78.18
11395;BME280;5753;54.402;10.220;2023-03-20T05:34:29;101566.28;;;12.91;82.73
11395;BME280;5753;54.402;10.220;2023-03-20T05:36:55;101571.47;;;11.33;89.29
11395;BME280;5753;54.402;10.220;2023-03-20T05:39:21;101566.38;;;13.46;79.98
11395;BME280;5753;54.402;10.220;2023-03-20T05:41:48;101576.22;;;12.26;87.73
11395;BME280;5753;54.402;10.220;2023-03-20T05:44:14;101568.78;;;12.87;82.09
11395;BME280;5753;54.402;10.220;2023-03-20T05:46:40;101578.34;;;11.69;92.74
11395;BME280;5753;54.402;10.220;2023-03-20T05:49:07;101580.03;;;12.03;88.40
11395;BME280;5753;54.402;10.220;2023-03-20T05:51:33;101586.00;;;12.01;89.46
11395;BME280;5753;54.402;10.220;2023-03-20T05:53:59;101581.78;;;13.37;81.09
11395;BME280;5753;54.402;10.220;2023-03-20T05:56:26;101579.19;;;12.45;84.63
11395;BME280;5753;54.402;10.220;2023-03-20T05:58:52;101572.97;;;14.45;73.39
11395;BME280;5753;54.402;10.220;2023-03-20T06:01:18;101571.00;;;14.27;73.85
11395;BME280;5753;54.402;10.220;2023-03-20T06:03:47;101572.38;;;14.67;70.56
11395;BME280;5753;54.402;10.220;2023-03-20T06:06:15;101570.78;;;14.12;73.01
11395;BME280;5753;54.402;10.220;2023-03-20T06:08:41;101576.22;;;14.30;71.21
11395;BME280;5753;54.402;10.220;2023-03-20T06:11:08;101583.25;;;14.40;72.02
11395;BME280;5753;54.402;10.220;2023-03-20T06:13:34;101585.09;;;13.84;75.17
11395;BME280;5753;54.402;10.220;2023-03-20T06:16:01;101588.81;;;13.45;76.52
11395;BME280;5753;54.402;10.220;2023-03-20T06:18:27;101585.66;;;13.15;78.27
11395;BME280;5753;54.402;10.220;2023-03-20T06:20:56;101586.50;;;14.24;72.94
11395;BME280;5753;54.402;10.220;2023-03-20T06:23:23;101586.88;;;14.52;71.18
11395;BME280;5753;54.402;10.220;2023-03-20T06:25:49;101582.94;;;12.60;80.64
11395;BME280;5753;54.402;10.220;2023-03-20T06:28:16;101610.84;;;12.33;80.31
11395;BME280;5753;54.402;10.220;2023-03-20T06:30:43;101597.19;;;11.65;89.24
11395;BME280;5753;54.402;10.220;2023-03-20T06:33:09;101603.69;;;12.23;85.38
11395;BME280;5753;54.402;10.220;2023-03-20T06:35:35;101610.22;;;12.06;84.19
11395;BME280;5753;54.402;10.220;2023-03-20T06:38:02;101610.38;;;12.52;83.06
11395;BME280;5753;54.402;10.220;2023-03-20T06:40:28;101607.53;;;12.01;85.03
11395;BME280;5753;54.402;10.220;2023-03-20T06:42:55;101605.78;;;11.64;89.63
11395;BME280;5753;54.402;10.220;2023-03-20T06:45:22;101598.06;;;13.85;73.90
11395;BME280;5753;54.402;10.220;2023-03-20T06:47:48;101616.19;;;12.03;82.39
11395;BME280;5753;54.402;10.220;2023-03-20T06:50:15;101597.16;;;12.82;77.44
11395;BME280;5753;54.402;10.220;2023-03-20T06:52:41;101605.31;;;11.80;83.97
11395;BME280;5753;54.402;10.220;2023-03-20T06:55:08;101606.06;;;12.12;80.88
11395;BME280;5753;54.402;10.220;2023-03-20T06:57:34;101616.09;;;11.64;85.16
11395;BME280;5753;54.402;10.220;2023-03-20T07:00:01;101613.63;;;11.68;85.36
11395;BME280;5753;54.402;10.220;2023-03-20T07:02:29;101604.91;;;11.63;87.21
11395;BME280;5753;54.402;10.220;2023-03-20T07:04:55;101614.56;;;12.07;84.08
11395;BME280;5753;54.402;10.220;2023-03-20T07:07:21;101612.41;;;13.65;75.82
11395;BME280;5753;54.402;10.220;2023-03-20T07:09:47;101615.09;;;13.18;74.90
11395;BME280;5753;54.402;10.220;2023-03-20T07:12:15;101610.94;;;14.41;70.45
11395;BME280;5753;54.402;10.220;2023-03-20T07:14:44;101610.78;;;14.29;70.92
11395;BME280;5753;54.402;10.220;2023-03-20T07:17:11;101620.59;;;13.90;71.09
11395;BME280;5753;54.402;10.220;2023-03-20T07:19:38;101618.06;;;14.58;69.65
11395;BME280;5753;54.402;10.220;2023-03-20T07:22:07;101606.31;;;15.84;62.58
11395;BME280;5753;54.402;10.220;2023-03-20T07:24:34;101618.66;;;13.76;71.55
11395;BME280;5753;54.402;10.220;2023-03-20T07:27:00;101636.91;;;13.82;70.75
11395;BME280;5753;54.402;10.220;2023-03-20T07:29:26;101643.38;;;13.09;76.13
11395;BME280;5753;54.402;10.220;2023-03-20T07:31:53;101638.78;;;13.93;70.20
11395;BME280;5753;54.402;10.220;2023-03-20T07:34:19;101645.13;;;13.10;74.30
11395;BME280;5753;54.402;10.220;2023-03-20T07:36:45;101640.78;;;13.09;76.17
11395;BME280;5753;54.402;10.220;2023-03-20T07:39:13;101634.56;;;14.63;69.04
11395;BME280;5753;54.402;10.220;2023-03-20T07:41:39;101641.31;;;13.90;72.78
11395;BME280;5753;54.402;10.220;2023-03-20T07:44:05;101647.88;;;13.68;71.10
11395;BME280;5753;54.402;10.220;2023-03-20T07:46:33;101646.06;;;13.62;76.02
11395;BME280;5753;54.402;10.220;2023-03-20T07:48:59;101643.75;;;13.79;73.33
11395;BME280;5753;54.402;10.220;2023-03-20T07:51:25;101632.31;;;12.73;76.63
11395;BME280;5753;54.402;10.220;2023-03-20T07:53:51;101635.81;;;13.20;73.84
11395;BME280;5753;54.402;10.220;2023-03-20T07:56:18;101632.06;;;12.20;84.65
11395;BME280;5753;54.402;10.220;2023-03-20T07:58:44;101632.59;;;13.32;77.84
11395;BME280;5753;54.402;10.220;2023-03-20T08:01:10;101629.06;;;12.39;83.17
11395;BME280;5753;54.402;10.220;2023-03-20T08:03:36;101638.69;;;13.34;74.75
11395;BME280;5753;54.402;10.220;2023-03-20T08:06:03;101641.28;;;12.46;79.85
11395;BME280;5753;54.402;10.220;2023-03-20T08:08:32;101638.31;;;12.72;78.96
11395;BME280;5753;54.402;10.220;2023-03-20T08:10:58;101637.19;;;13.48;75.65
11395;BME280;5753;54.402;10.220;2023-03-20T08:13:24;101627.94;;;13.15;77.35
11395;BME280;5753;54.402;10.220;2023-03-20T08:15:51;101633.16;;;12.72;80.47
11395;BME280;5753;54.402;10.220;2023-03-20T08:18:17;101626.28;;;13.17;77.78
11395;BME280;5753;54.402;10.220;2023-03-20T08:20:45;101640.13;;;13.69;76.11
11395;BME280;5753;54.402;10.220;2023-03-20T08:23:11;101650.34;;;12.70;78.17
11395;BME280;5753;54.402;10.220;2023-03-20T08:25:37;101634.53;;;12.98;77.79
11395;BME280;5753;54.402;10.220;2023-03-20T08:28:03;101639.28;;;12.77;79.46
11395;BME280;5753;54.402;10.220;2023-03-20T08:30:30;101637.56;;;12.34;79.79
11395;BME280;5753;54.402;10.220;2023-03-20T08:32:56;101642.72;;;13.19;77.71
11395;BME280;5753;54.402;10.220;2023-03-20T08:35:24;101634.16;;;13.73;75.15
11395;BME280;5753;54.402;10.220;2023-03-20T08:37:50;101640.13;;;12.32;80.76
11395;BME280;5753;54.402;10.220;2023-03-20T08:40:16;101629.13;;;12.84;80.12
11395;BME280;5753;54.402;10.220;2023-03-20T08:42:42;101627.41;;;13.83;74.14
11395;BME280;5753;54.402;10.220;2023-03-20T08:45:09;101631.06;;;13.97;72.60
11395;BME280;5753;54.402;10.220;2023-03-20T08:47:36;101632.25;;;14.87;66.93
11395;BME280;5753;54.402;10.220;2023-03-20T08:50:02;101637.41;;;14.84;64.60
11395;BME280;5753;54.402;10.220;2023-03-20T08:52:28;101632.28;;;14.90;65.32
11395;BME280;5753;54.402;10.220;2023-03-20T08:54:54;101629.91;;;13.77;69.73
11395;BME280;5753;54.402;10.220;2023-03-20T08:57:21;101636.25;;;13.97;70.55
11395;BME280;5753;54.402;10.220;2023-03-20T08:59:47;101637.03;;;14.54;66.99
11395;BME280;5753;54.402;10.220;2023-03-20T09:02:13;101638.19;;;14.12;68.23
11395;BME280;5753;54.402;10.220;2023-03-20T09:04:39;101628.66;;;14.73;67.58
11395;BME280;5753;54.402;10.220;2023-03-20T09:07:06;101636.22;;;13.96;71.05
11395;BME280;5753;54.402;10.220;2023-03-20T09:09:33;101640.13;;;14.96;66.35
11395;BME280;5753;54.402;10.220;2023-03-20T09:11:59;101648.16;;;13.84;71.01
11395;BME280;5753;54.402;10.220;2023-03-20T09:14:26;101646.31;;;13.77;70.75
11395;BME280;5753;54.402;10.220;2023-03-20T09:16:53;101637.63;;;14.33;72.49
11395;BME280;5753;54.402;10.220;2023-03-20T09:19:19;101641.72;;;13.61;75.16
11395;BME280;5753;54.402;10.220;2023-03-20T09:21:46;101652.50;;;13.87;74.63
11395;BME280;5753;54.402;10.220;2023-03-20T09:24:12;101646.34;;;14.39;68.20
11395;BME280;5753;54.402;10.220;2023-03-20T09:26:39;101648.31;;;15.33;66.47
11395;BME280;5753;54.402;10.220;2023-03-20T09:29:05;101650.28;;;15.58;65.12
11395;BME280;5753;54.402;10.220;2023-03-20T09:31:31;101647.06;;;15.90;63.13
11395;BME280;5753;54.402;10.220;2023-03-20T09:33:59;101650.19;;;15.49;65.34
11395;BME280;5753;54.402;10.220;2023-03-20T09:36:25;101652.06;;;14.77;66.35
11395;BME280;5753;54.402;10.220;2023-03-20T09:38:51;101658.38;;;13.26;76.82
11395;BME280;5753;54.402;10.220;2023-03-20T09:41:21;101656.28;;;14.69;69.08
11395;BME280;5753;54.402;10.220;2023-03-20T09:44:07;101652.53;;;14.47;71.36
11395;BME280;5753;54.402;10.220;2023-03-20T09:46:47;101649.97;;;15.25;68.44
11395;BME280;5753;54.402;10.220;2023-03-20T09:52:29;101651.06;;;14.68;70.05
11395;BME280;5753;54.402;10.220;2023-03-20T09:55:21;101640.13;;;15.86;66.66
11395;BME280;5753;54.402;10.220;2023-03-20T09:57:50;101645.59;;;16.31;63.07
11395;BME280;5753;54.402;10.220;2023-03-20T10:00:20;101642.47;;;17.28;60.26
11395;BME280;5753;54.402;10.220;2023-03-20T10:02:49;101639.75;;;16.75;60.27
11395;BME280;5753;54.402;10.220;2023-03-20T10:05:24;101654.72;;;14.85;67.14
11395;BME280;5753;54.402;10.220;2023-03-20T10:07:54;101655.22;;;16.54;61.88
11395;BME280;5753;54.402;10.220;2023-03-20T10:15:51;101659.06;;;14.86;67.33
11395;BME280;5753;54.402;10.220;2023-03-20T10:18:21;101642.59;;;15.67;64.22
11395;BME280;5753;54.402;10.220;2023-03-20T10:21:02;101624.16;;;15.43;66.09
11395;BME280;5753;54.402;10.220;2023-03-20T10:24:02;101639.72;;;14.61;69.47
11395;BME280;5753;54.402;10.220;2023-03-20T10:26:28;101633.94;;;15.68;64.57
11395;BME280;5753;54.402;10.220;2023-03-20T10:28:59;101628.31;;;16.43;62.38
11395;BME280;5753;54.402;10.220;2023-03-20T10:31:45;101635.88;;;16.00;64.92
11395;BME280;5753;54.402;10.220;2023-03-20T10:42:53;101643.53;;;15.79;63.89
11395;BME280;5753;54.402;10.220;2023-03-20T10:48:15;101639.75;;;16.71;61.49
11395;BME280;5753;54.402;10.220;2023-03-20T10:50:52;101636.97;;;16.43;62.91
11395;BME280;5753;54.402;10.220;2023-03-20T10:56:01;101633.56;;;15.30;66.36
11395;BME280;5753;54.402;10.220;2023-03-20T10:58:30;101638.41;;;15.91;64.50
11395;BME280;5753;54.402;10.220;2023-03-20T11:00:58;101632.06;;;17.42;60.61
11395;BME280;5753;54.402;10.220;2023-03-20T11:03:27;101633.78;;;17.34;59.31
11395;BME280;5753;54.402;10.220;2023-03-20T11:08:29;101640.38;;;16.25;61.08
11395;BME280;5753;54.402;10.220;2023-03-20T11:10:59;101637.00;;;16.48;60.69
11395;BME280;5753;54.402;10.220;2023-03-20T11:13:40;101633.31;;;16.06;61.64
11395;BME280;5753;54.402;10.220;2023-03-20T11:16:30;101632.81;;;16.80;60.75
11395;BME280;5753;54.402;10.220;2023-03-20T11:19:05;101630.41;;;13.56;75.16
11395;BME280;5753;54.402;10.220;2023-03-20T11:21:31;101618.22;;;14.70;71.61
11395;BME280;5753;54.402;10.220;2023-03-20T11:24:00;101635.28;;;14.51;70.97
11395;BME280;5753;54.402;10.220;2023-03-20T11:26:35;101624.03;;;15.31;68.07
11395;BME280;5753;54.402;10.220;2023-03-20T11:29:05;101628.25;;;14.42;70.36
11395;BME280;5753;54.402;10.220;2023-03-20T11:31:38;101624.03;;;15.28;69.21
11395;BME280;5753;54.402;10.220;2023-03-20T11:37:06;101621.63;;;17.45;60.19
11395;BME280;5753;54.402;10.220;2023-03-20T11:39:32;101617.28;;;17.27;59.29
11395;BME280;5753;54.402;10.220;2023-03-20T11:42:04;101623.19;;;16.61;60.96
11395;BME280;5753;54.402;10.220;2023-03-20T11:44:56;101625.63;;;16.23;62.20
11395;BME280;5753;54.402;10.220;2023-03-20T11:47:25;101614.28;;;16.13;62.29
11395;BME280;5753;54.402;10.220;2023-03-20T11:50:00;101614.69;;;17.23;60.14
11395;BME280;5753;54.402;10.220;2023-03-20T11:52:38;101616.66;;;14.84;68.45
11395;BME280;5753;54.402;10.220;2023-03-20T11:55:21;101612.88;;;16.90;60.00
11395;BME280;5753;54.402;10.220;2023-03-20T11:57:48;101605.97;;;17.94;57.44
11395;BME280;5753;54.402;10.220;2023-03-20T12:02:44;101603.41;;;17.63;57.20
11395;BME280;5753;54.402;10.220;2023-03-20T12:05:36;101593.78;;;17.93;56.22
11395;BME280;5753;54.402;10.220;2023-03-20T12:08:14;101605.06;;;16.84;59.95
11395;BME280;5753;54.402;10.220;2023-03-20T12:10:42;101603.41;;;17.74;57.19
11395;BME280;5753;54.402;10.220;2023-03-20T12:13:15;101608.59;;;17.42;58.06
11395;BME280;5753;54.402;10.220;2023-03-20T12:15:49;101613.34;;;14.99;69.18
11395;BME280;5753;54.402;10.220;2023-03-20T12:18:35;101598.34;;;14.07;73.28
11395;BME280;5753;54.402;10.220;2023-03-20T12:21:06;101595.44;;;15.26;71.91
11395;BME280;5753;54.402;10.220;2023-03-20T12:23:50;101595.44;;;16.63;63.47
11395;BME280;5753;54.402;10.220;2023-03-20T12:31:48;101599.47;;;16.04;65.38
11395;BME280;5753;54.402;10.220;2023-03-20T12:34:31;101598.50;;;15.83;65.75
11395;BME280;5753;54.402;10.220;2023-03-20T12:36:59;101598.44;;;15.73;67.01
11395;BME280;5753;54.402;10.220;2023-03-20T12:39:42;101599.91;;;17.10;61.78
11395;BME280;5753;54.402;10.220;2023-03-20T12:42:35;101602.25;;;16.36;62.21
11395;BME280;5753;54.402;10.220;2023-03-20T12:45:18;101599.19;;;15.59;65.03
11395;BME280;5753;54.402;10.220;2023-03-20T12:50:35;101597.88;;;16.26;61.87
11395;BME280;5753;54.402;10.220;2023-03-20T12:58:46;101589.34;;;16.56;62.19
11395;BME280;5753;54.402;10.220;2023-03-20T13:01:19;101581.59;;;16.76;58.79
11395;BME280;5753;54.402;10.220;2023-03-20T13:06:53;101578.16;;;18.04;54.82
11395;BME280;5753;54.402;10.220;2023-03-20T13:12:09;101579.94;;;17.51;55.95
11395;BME280;5753;54.402;10.220;2023-03-20T13:17:23;101587.56;;;16.48;56.54
11395;BME280;5753;54.402;10.220;2023-03-20T13:23:29;101586.75;;;16.61;55.61
11395;BME280;5753;54.402;10.220;2023-03-20T13:39:37;101570.34;;;15.30;58.76
11395;BME280;5753;54.402;10.220;2023-03-20T13:42:11;101564.75;;;15.92;58.38
11395;BME280;5753;54.402;10.220;2023-03-20T13:44:39;101557.19;;;16.50;55.65
11395;BME280;5753;54.402;10.220;2023-03-20T13:47:18;101560.63;;;16.33;55.64
11395;BME280;5753;54.402;10.220;2023-03-20T13:50:17;101561.63;;;15.22;58.57
11395;BME280;5753;54.402;10.220;2023-03-20T13:52:57;101570.38;;;17.03;55.21
11395;BME280;5753;54.402;10.220;2023-03-20T13:55:31;101565.50;;;14.74;60.02
11395;BME280;5753;54.402;10.220;2023-03-20T14:01:06;101584.25;;;15.35;59.01
11395;BME280;5753;54.402;10.220;2023-03-20T14:03:38;101583.75;;;14.13;62.08
11395;BME280;5753;54.402;10.220;2023-03-20T14:06:17;101587.34;;;14.94;59.98
11395;BME280;5753;54.402;10.220;2023-03-20T14:08:51;101579.75;;;15.14;58.66
11395;BME280;5753;54.402;10.220;2023-03-20T14:13:54;101578.28;;;14.59;60.59
11395;BME280;5753;54.402;10.220;2023-03-20T14:16:21;101573.72;;;14.38;59.69
11395;BME280;5753;54.402;10.220;2023-03-20T14:18:54;101583.19;;;14.34;60.99
11395;BME280;5753;54.402;10.220;2023-03-20T14:21:28;101587.56;;;13.76;63.94
11395;BME280;5753;54.402;10.220;2023-03-20T14:24:02;101582.19;;;15.00;60.09
11395;BME280;5753;54.402;10.220;2023-03-20T14:26:35;101585.59;;;14.21;61.47
11395;BME280;5753;54.402;10.220;2023-03-20T14:31:32;101586.88;;;14.53;62.48
11395;BME280;5753;54.402;10.220;2023-03-20T14:37:28;101589.41;;;15.32;61.60
11395;BME280;5753;54.402;10.220;2023-03-20T14:40:15;101590.66;;;13.54;68.82
11395;BME280;5753;54.402;10.220;2023-03-20T14:46:17;101586.59;;;13.17;72.56
11395;BME280;5753;54.402;10.220;2023-03-20T14:48:51;101580.56;;;14.33;69.02
11395;BME280;5753;54.402;10.220;2023-03-20T14:56:47;101566.84;;;15.22;62.50
11395;BME280;5753;54.402;10.220;2023-03-20T14:59:20;101566.00;;;16.79;57.69
11395;BME280;5753;54.402;10.220;2023-03-20T15:01:57;101560.78;;;16.82;57.36
11395;BME280;5753;54.402;10.220;2023-03-20T15:04:36;101566.03;;;17.58;55.42
11395;BME280;5753;54.402;10.220;2023-03-20T15:09:42;101542.47;;;16.55;58.73
11395;BME280;5753;54.402;10.220;2023-03-20T15:12:12;101546.53;;;15.89;60.04
11395;BME280;5753;54.402;10.220;2023-03-20T15:14:43;101553.84;;;16.69;58.42
11395;BME280;5753;54.402;10.220;2023-03-20T15:17:40;101546.03;;;17.47;55.93
11395;BME280;5753;54.402;10.220;2023-03-20T15:20:21;101553.88;;;17.09;55.77
11395;BME280;5753;54.402;10.220;2023-03-20T15:22:56;101552.16;;;17.14;55.73
11395;BME280;5753;54.402;10.220;2023-03-20T15:25:29;101559.94;;;15.27;59.77
11395;BME280;5753;54.402;10.220;2023-03-20T15:27:57;101554.19;;;15.61;61.91